createdAt,value
2023-05-05T00:00:05.834Z,101366.78
2023-05-05T00:02:32.349Z,101372.47
2023-05-05T00:04:58.845Z,101368.31
2023-05-05T00:07:25.252Z,101367.94
2023-05-05T00:09:51.719Z,101369.50
2023-05-05T00:12:18.109Z,101368.69
2023-05-05T00:14:44.602Z,101367.84
2023-05-05T00:17:11.094Z,101369.06
2023-05-05T00:19:37.653Z,101372.22
2023-05-05T00:22:04.127Z,101376.47
2023-05-05T00:24:30.555Z,101370.81
2023-05-05T00:26:56.999Z,101363.34
2023-05-05T00:29:23.472Z,101361.41
2023-05-05T00:31:53.102Z,101361.66
2023-05-05T00:34:19.774Z,101354.22
2023-05-05T00:36:46.172Z,101349.63
2023-05-05T00:39:12.558Z,101351.84
2023-05-05T00:41:39.393Z,101359.06
2023-05-05T00:44:05.790Z,101356.94
2023-05-05T00:46:33.975Z,101369.03
2023-05-05T00:49:01.209Z,101373.72
2023-05-05T00:51:28.337Z,101387.31
2023-05-05T00:53:55.162Z,101384.91
2023-05-05T00:56:22.229Z,101384.91
2023-05-05T00:58:49.320Z,101381.00
2023-05-05T01:01:16.410Z,101380.78
2023-05-05T01:03:44.106Z,101379.25
2023-05-05T01:06:45.907Z,101361.75
2023-05-05T01:09:38.100Z,101369.00
2023-05-05T01:12:17.493Z,101373.47
2023-05-05T01:15:01.426Z,101370.88
2023-05-05T01:17:39.523Z,101367.09
2023-05-05T01:20:21.542Z,101372.44
2023-05-05T01:22:54.763Z,101379.09
2023-05-05T01:25:59.695Z,101385.94
2023-05-05T01:28:49.759Z,101378.59
2023-05-05T01:31:51.507Z,101388.78
2023-05-05T01:34:32.998Z,101394.59
2023-05-05T01:37:08.199Z,101390.66
2023-05-05T01:39:36.617Z,101393.53
2023-05-05T01:42:08.198Z,101403.47
2023-05-05T01:44:37.665Z,101391.84
2023-05-05T01:47:06.489Z,101397.06
2023-05-05T01:49:36.032Z,101396.00
2023-05-05T01:52:04.915Z,101394.72
2023-05-05T01:54:34.424Z,101392.91
2023-05-05T01:57:04.746Z,101409.00
2023-05-05T01:59:32.714Z,101412.22
2023-05-05T02:02:02.189Z,101413.03
2023-05-05T02:04:31.595Z,101424.16
2023-05-05T02:06:59.473Z,101414.59
2023-05-05T02:09:28.329Z,101417.66
2023-05-05T02:11:57.926Z,101406.53
2023-05-05T02:14:32.395Z,101377.56
2023-05-05T02:16:59.322Z,101359.59
2023-05-05T02:19:34.330Z,101368.53
2023-05-05T02:22:00.905Z,101367.47
2023-05-05T02:29:14.448Z,101393.75
2023-05-05T02:31:46.472Z,101402.50
2023-05-05T02:34:21.159Z,101405.69
2023-05-05T02:36:51.556Z,101390.19
2023-05-05T02:39:27.328Z,101395.88
2023-05-05T02:41:55.374Z,101399.78
2023-05-05T02:44:27.439Z,101398.13
2023-05-05T02:46:54.404Z,101390.44
2023-05-05T02:49:21.417Z,101381.94
2023-05-05T02:51:48.187Z,101379.69
2023-05-05T02:54:22.014Z,101374.13
2023-05-05T02:56:51.848Z,101375.31
2023-05-05T02:59:26.705Z,101376.84
2023-05-05T03:02:18.209Z,101379.91
2023-05-05T03:05:13.398Z,101381.31
2023-05-05T03:07:56.053Z,101387.66
2023-05-05T03:10:31.145Z,101382.47
2023-05-05T03:13:02.721Z,101388.72
2023-05-05T03:15:51.441Z,101395.69
2023-05-05T03:18:24.329Z,101394.50
2023-05-05T03:20:58.176Z,101397.47
2023-05-05T03:23:24.792Z,101404.75
2023-05-05T03:25:56.334Z,101406.66
2023-05-05T03:28:30.040Z,101410.66
2023-05-05T03:30:59.670Z,101406.78
2023-05-05T03:33:26.362Z,101411.03
2023-05-05T03:35:54.946Z,101420.69
2023-05-05T03:38:21.388Z,101421.59
2023-05-05T03:40:47.986Z,101411.22
2023-05-05T03:43:19.629Z,101392.66
2023-05-05T03:45:46.488Z,101403.84
2023-05-05T03:48:13.673Z,101398.88
2023-05-05T03:50:44.308Z,101415.88
2023-05-05T03:53:11.563Z,101413.22
2023-05-05T03:55:38.545Z,101417.94
2023-05-05T03:58:05.013Z,101435.75
2023-05-05T04:00:32.061Z,101438.69
2023-05-05T04:02:58.999Z,101443.06
2023-05-05T04:05:26.012Z,101445.09
2023-05-05T04:07:52.988Z,101437.75
2023-05-05T04:10:19.841Z,101447.34
2023-05-05T04:12:46.377Z,101458.78
2023-05-05T04:15:12.915Z,101463.41
2023-05-05T04:17:40.277Z,101460.44
2023-05-05T04:20:07.467Z,101469.66
2023-05-05T04:22:34.009Z,101471.31
2023-05-05T04:25:01.190Z,101467.16
2023-05-05T04:27:29.884Z,101467.78
2023-05-05T04:29:58.135Z,101478.03
2023-05-05T04:32:24.886Z,101483.22
2023-05-05T04:34:51.722Z,101489.72
2023-05-05T04:37:18.560Z,101494.56
2023-05-05T04:39:46.396Z,101499.75
2023-05-05T04:42:13.499Z,101495.63
2023-05-05T04:44:39.985Z,101503.75
2023-05-05T04:47:07.677Z,101498.34
2023-05-05T04:49:35.718Z,101500.59
2023-05-05T04:52:02.143Z,101494.09
2023-05-05T04:54:28.538Z,101503.44
2023-05-05T04:56:55.633Z,101498.00
2023-05-05T04:59:22.037Z,101503.00
2023-05-05T05:01:48.569Z,101510.94
2023-05-05T05:04:18.355Z,101512.97
2023-05-05T05:06:45.919Z,101512.50
2023-05-05T05:09:12.967Z,101517.47
2023-05-05T05:11:39.603Z,101517.03
2023-05-05T05:14:06.849Z,101529.09
2023-05-05T05:16:33.562Z,101531.34
2023-05-05T05:19:01.628Z,101524.16
2023-05-05T05:21:29.035Z,101521.59
2023-05-05T05:23:55.555Z,101520.91
2023-05-05T05:26:23.386Z,101522.94
2023-05-05T05:28:50.247Z,101521.19
2023-05-05T05:31:16.746Z,101518.63
2023-05-05T05:33:44.001Z,101530.22
2023-05-05T05:36:12.301Z,101530.13
2023-05-05T05:38:39.343Z,101530.06
2023-05-05T05:41:07.568Z,101531.41
2023-05-05T05:43:35.960Z,101530.22
2023-05-05T05:46:03.799Z,101544.31
2023-05-05T05:48:30.639Z,101542.31
2023-05-05T05:50:58.439Z,101540.34
2023-05-05T05:53:25.436Z,101544.34
2023-05-05T05:55:52.948Z,101541.31
2023-05-05T05:58:19.701Z,101542.59
2023-05-05T06:00:48.192Z,101546.41
2023-05-05T06:03:15.227Z,101549.59
2023-05-05T06:05:41.806Z,101545.22
2023-05-05T06:08:09.101Z,101545.44
2023-05-05T06:10:41.089Z,101543.19
2023-05-05T06:13:11.985Z,101546.16
2023-05-05T06:15:42.568Z,101536.06
2023-05-05T06:18:10.261Z,101534.38
2023-05-05T06:20:37.045Z,101532.09
2023-05-05T06:23:03.641Z,101538.34
2023-05-05T06:25:32.718Z,101529.06
2023-05-05T06:27:59.962Z,101533.97
2023-05-05T06:30:26.442Z,101539.13
2023-05-05T06:32:54.194Z,101548.03
2023-05-05T06:35:21.974Z,101551.91
2023-05-05T06:37:48.393Z,101556.78
2023-05-05T06:40:15.051Z,101562.44
2023-05-05T06:42:41.704Z,101553.59
2023-05-05T06:45:11.000Z,101558.19
2023-05-05T06:47:37.479Z,101559.81
2023-05-05T06:50:04.171Z,101559.28
2023-05-05T06:52:30.639Z,101566.81
2023-05-05T06:54:57.069Z,101563.19
2023-05-05T06:57:23.629Z,101558.81
2023-05-05T06:59:50.088Z,101561.75
2023-05-05T07:02:16.482Z,101566.03
2023-05-05T07:04:43.891Z,101573.00
2023-05-05T07:07:10.416Z,101570.66
2023-05-05T07:09:36.981Z,101579.66
2023-05-05T07:12:03.648Z,101577.63
2023-05-05T07:14:30.339Z,101582.53
2023-05-05T07:16:56.958Z,101580.59
2023-05-05T07:19:23.591Z,101587.63
2023-05-05T07:21:50.089Z,101587.25
2023-05-05T07:24:16.533Z,101581.22
2023-05-05T07:26:43.210Z,101576.19
2023-05-05T07:29:09.623Z,101577.53
2023-05-05T07:31:36.057Z,101579.41
2023-05-05T07:34:02.555Z,101586.75
2023-05-05T07:36:29.019Z,101590.97
2023-05-05T07:38:55.754Z,101586.28
2023-05-05T07:41:22.170Z,101585.91
2023-05-05T07:43:48.661Z,101588.88
2023-05-05T07:46:15.232Z,101580.72
2023-05-05T07:48:41.968Z,101583.25
2023-05-05T07:51:09.149Z,101593.69
2023-05-05T07:53:35.629Z,101588.84
2023-05-05T07:56:02.072Z,101588.94
2023-05-05T07:58:28.472Z,101584.25
2023-05-05T08:00:54.931Z,101583.28
2023-05-05T08:03:24.327Z,101582.44
2023-05-05T08:05:54.560Z,101590.47
2023-05-05T08:08:24.403Z,101585.75
2023-05-05T08:10:53.289Z,101592.59
2023-05-05T08:13:20.296Z,101583.00
2023-05-05T08:15:46.939Z,101592.41
2023-05-05T08:18:14.441Z,101592.84
2023-05-05T08:20:40.988Z,101596.63
2023-05-05T08:23:07.487Z,101595.13
2023-05-05T08:25:33.977Z,101592.84
2023-05-05T08:28:00.593Z,101593.38
2023-05-05T08:30:27.194Z,101599.19
2023-05-05T08:32:53.763Z,101596.75
2023-05-05T08:35:20.308Z,101587.00
2023-05-05T08:37:46.740Z,101593.25
2023-05-05T08:40:14.209Z,101601.03
2023-05-05T08:42:41.963Z,101600.56
2023-05-05T08:45:10.466Z,101605.25
2023-05-05T08:47:38.461Z,101605.34
2023-05-05T08:50:08.163Z,101609.03
2023-05-05T08:52:40.588Z,101612.13
2023-05-05T08:55:41.606Z,101618.63
2023-05-05T08:58:09.015Z,101616.59
2023-05-05T09:00:36.169Z,101610.31
2023-05-05T09:03:04.813Z,101613.03
2023-05-05T09:05:31.493Z,101611.34
2023-05-05T09:07:58.508Z,101618.56
2023-05-05T09:10:26.066Z,101612.56
2023-05-05T09:12:52.595Z,101609.31
2023-05-05T09:15:19.056Z,101599.75
2023-05-05T09:17:45.793Z,101609.13
2023-05-05T09:20:14.349Z,101609.97
2023-05-05T09:22:45.205Z,101608.56
2023-05-05T09:25:13.812Z,101612.38
2023-05-05T09:27:42.732Z,101607.47
2023-05-05T09:30:11.099Z,101614.66
2023-05-05T09:32:51.787Z,101608.28
2023-05-05T09:35:19.909Z,101610.69
2023-05-05T09:37:46.846Z,101612.66
2023-05-05T09:40:15.090Z,101611.66
2023-05-05T09:42:41.791Z,101606.72
2023-05-05T09:45:17.088Z,101611.13
2023-05-05T09:47:45.600Z,101607.81
2023-05-05T09:50:18.387Z,101603.75
2023-05-05T09:53:14.697Z,101602.41
2023-05-05T09:55:41.800Z,101592.00
2023-05-05T09:58:18.879Z,101596.09
2023-05-05T10:00:46.373Z,101594.16
2023-05-05T10:03:13.163Z,101595.38
2023-05-05T10:05:54.537Z,101594.84
2023-05-05T10:08:24.384Z,101597.06
2023-05-05T10:11:04.031Z,101588.53
2023-05-05T10:13:31.579Z,101596.78
2023-05-05T10:15:58.658Z,101582.75
2023-05-05T10:18:27.127Z,101593.22
2023-05-05T10:21:01.836Z,101606.97
2023-05-05T10:23:35.950Z,101633.88
2023-05-05T10:26:05.582Z,101634.13
2023-05-05T10:28:33.291Z,101633.56
2023-05-05T10:31:04.249Z,101628.53
2023-05-05T10:33:45.183Z,101638.34
2023-05-05T10:36:12.458Z,101633.34
2023-05-05T10:38:39.209Z,101639.63
2023-05-05T10:41:06.386Z,101628.03
2023-05-05T10:43:33.747Z,101619.94
2023-05-05T10:46:01.267Z,101623.38
2023-05-05T10:48:37.851Z,101622.75
2023-05-05T10:51:35.402Z,101625.56
2023-05-05T10:54:16.974Z,101642.63
2023-05-05T10:56:43.674Z,101643.00
2023-05-05T10:59:38.755Z,101644.84
2023-05-05T11:02:28.438Z,101642.69
2023-05-05T11:05:14.308Z,101650.69
2023-05-05T11:07:42.104Z,101653.16
2023-05-05T11:10:13.047Z,101647.63
2023-05-05T11:12:52.100Z,101646.25
2023-05-05T11:15:28.034Z,101648.63
2023-05-05T11:17:56.433Z,101648.41
2023-05-05T11:20:52.281Z,101659.53
2023-05-05T11:23:21.891Z,101655.00
2023-05-05T11:25:48.395Z,101645.53
2023-05-05T11:28:17.495Z,101648.59
2023-05-05T11:30:59.612Z,101654.28
2023-05-05T11:33:33.315Z,101670.25
2023-05-05T11:36:12.046Z,101678.91
2023-05-05T11:38:53.870Z,101699.63
2023-05-05T11:41:32.526Z,101695.09
2023-05-05T11:44:18.420Z,101683.84
2023-05-05T11:46:50.977Z,101692.31
2023-05-05T11:49:37.621Z,101686.41
2023-05-05T11:52:06.377Z,101693.13
2023-05-05T11:54:36.250Z,101687.09
2023-05-05T11:57:07.555Z,101680.91
2023-05-05T11:59:38.469Z,101677.59
2023-05-05T12:02:05.136Z,101682.44
2023-05-05T12:04:31.944Z,101684.31
2023-05-05T12:06:59.359Z,101670.47
2023-05-05T12:09:26.933Z,101670.94
2023-05-05T12:11:58.629Z,101666.22
2023-05-05T12:14:25.748Z,101668.47
2023-05-05T12:17:01.320Z,101667.44
2023-05-05T12:19:33.234Z,101662.13
2023-05-05T12:22:01.054Z,101669.81
2023-05-05T12:24:27.702Z,101668.53
2023-05-05T12:26:54.113Z,101671.41
2023-05-05T12:29:25.124Z,101671.06
2023-05-05T12:31:51.647Z,101668.44
2023-05-05T12:34:18.687Z,101670.94
2023-05-05T12:36:45.348Z,101673.56
2023-05-05T12:39:12.084Z,101672.16
2023-05-05T12:41:38.745Z,101681.84
2023-05-05T12:44:05.425Z,101674.66
2023-05-05T12:46:44.922Z,101679.16
2023-05-05T12:49:11.490Z,101664.00
2023-05-05T12:51:38.353Z,101663.16
2023-05-05T12:54:09.975Z,101665.66
2023-05-05T12:56:41.338Z,101663.91
2023-05-05T12:59:12.472Z,101659.28
2023-05-05T13:01:52.859Z,101664.25
2023-05-05T13:04:20.926Z,101659.38
2023-05-05T13:06:49.598Z,101655.63
2023-05-05T13:09:24.074Z,101654.66
2023-05-05T13:11:50.659Z,101659.69
2023-05-05T13:14:17.108Z,101652.66
2023-05-05T13:16:43.563Z,101652.19
2023-05-05T13:19:10.093Z,101656.81
2023-05-05T13:21:36.637Z,101664.97
2023-05-05T13:24:19.782Z,101666.19
2023-05-05T13:26:51.729Z,101668.03
2023-05-05T13:29:18.627Z,101659.63
2023-05-05T13:31:45.811Z,101669.91
2023-05-05T13:34:12.452Z,101665.06
2023-05-05T13:36:38.914Z,101676.09
2023-05-05T13:39:05.475Z,101682.22
2023-05-05T13:41:31.901Z,101682.69
2023-05-05T13:43:58.515Z,101684.59
2023-05-05T13:46:25.026Z,101680.69
2023-05-05T13:48:56.008Z,101684.81
2023-05-05T13:51:22.977Z,101691.94
2023-05-05T13:53:49.645Z,101692.03
2023-05-05T13:56:17.745Z,101691.84
2023-05-05T13:58:44.189Z,101682.59
2023-05-05T14:01:11.010Z,101676.78
2023-05-05T14:03:39.525Z,101666.59
2023-05-05T14:06:07.411Z,101672.06
2023-05-05T14:08:34.000Z,101674.06
2023-05-05T14:11:00.378Z,101673.22
2023-05-05T14:13:26.839Z,101665.66
2023-05-05T14:15:53.736Z,101662.00
2023-05-05T14:18:20.704Z,101662.59
2023-05-05T14:20:47.207Z,101662.50
2023-05-05T14:23:13.637Z,101662.41
2023-05-05T14:25:40.071Z,101651.22
2023-05-05T14:28:07.124Z,101645.91
2023-05-05T14:30:33.541Z,101642.84
2023-05-05T14:33:01.115Z,101631.31
2023-05-05T14:35:27.617Z,101630.13
2023-05-05T14:37:54.029Z,101637.00
2023-05-05T14:40:20.503Z,101626.69
2023-05-05T14:42:46.911Z,101621.22
2023-05-05T14:45:14.600Z,101604.69
2023-05-05T14:47:41.105Z,101608.28
2023-05-05T14:50:09.712Z,101604.22
2023-05-05T14:52:40.236Z,101598.88
2023-05-05T14:55:07.549Z,101592.50
2023-05-05T14:57:34.400Z,101587.94
2023-05-05T15:00:00.968Z,101600.50
2023-05-05T15:02:27.516Z,101614.63
2023-05-05T15:04:53.989Z,101623.97
2023-05-05T15:07:21.984Z,101628.59
2023-05-05T15:09:48.392Z,101624.25
2023-05-05T15:12:14.816Z,101630.28
2023-05-05T15:14:41.355Z,101633.91
2023-05-05T15:17:07.755Z,101632.66
2023-05-05T15:19:34.135Z,101629.72
2023-05-05T15:22:00.660Z,101623.78
2023-05-05T15:24:27.130Z,101625.50
2023-05-05T15:26:53.585Z,101618.84
2023-05-05T15:29:19.990Z,101619.22
2023-05-05T15:31:46.501Z,101614.09
2023-05-05T15:34:12.972Z,101610.41
2023-05-05T15:36:39.386Z,101609.66
2023-05-05T15:39:05.839Z,101606.72
2023-05-05T15:41:34.186Z,101615.38
2023-05-05T15:44:02.050Z,101598.81
2023-05-05T15:46:32.811Z,101602.06
2023-05-05T15:48:59.294Z,101600.91
2023-05-05T15:51:26.188Z,101595.63
2023-05-05T15:53:53.292Z,101599.53
2023-05-05T15:56:19.838Z,101602.31
2023-05-05T15:58:46.346Z,101604.16
2023-05-05T16:01:12.857Z,101592.97
2023-05-05T16:03:39.374Z,101590.59
2023-05-05T16:06:06.200Z,101589.94
2023-05-05T16:08:32.720Z,101589.19
2023-05-05T16:10:59.116Z,101586.94
2023-05-05T16:13:25.545Z,101590.56
2023-05-05T16:15:52.027Z,101594.84
2023-05-05T16:18:18.497Z,101598.19
2023-05-05T16:20:45.180Z,101584.84
2023-05-05T16:23:11.684Z,101585.03
2023-05-05T16:25:38.181Z,101582.78
2023-05-05T16:28:04.878Z,101581.03
2023-05-05T16:30:31.504Z,101578.22
2023-05-05T16:32:58.048Z,101573.91
2023-05-05T16:35:24.510Z,101578.38
2023-05-05T16:37:51.147Z,101572.53
2023-05-05T16:40:17.759Z,101569.19
2023-05-05T16:42:44.778Z,101576.31
2023-05-05T16:45:11.531Z,101570.34
2023-05-05T16:47:38.307Z,101569.03
2023-05-05T16:50:05.323Z,101576.81
2023-05-05T16:52:31.805Z,101570.47
2023-05-05T16:54:58.220Z,101565.38
2023-05-05T16:57:24.727Z,101561.75
2023-05-05T16:59:51.153Z,101566.66
2023-05-05T17:02:17.557Z,101586.28
2023-05-05T17:04:43.962Z,101575.88
2023-05-05T17:07:10.441Z,101581.34
2023-05-05T17:09:36.910Z,101578.75
2023-05-05T17:12:04.319Z,101580.19
2023-05-05T17:14:31.079Z,101575.56
2023-05-05T17:16:57.861Z,101579.63
2023-05-05T17:19:24.338Z,101581.53
2023-05-05T17:21:50.736Z,101584.19
2023-05-05T17:24:17.192Z,101574.25
2023-05-05T17:26:43.629Z,101575.25
2023-05-05T17:29:12.264Z,101579.56
2023-05-05T17:31:39.495Z,101580.53
2023-05-05T17:34:05.978Z,101583.19
2023-05-05T17:36:33.395Z,101590.13
2023-05-05T17:39:02.921Z,101585.66
2023-05-05T17:41:29.404Z,101578.56
2023-05-05T17:43:56.035Z,101577.41
2023-05-05T17:46:22.579Z,101586.66
2023-05-05T17:48:49.275Z,101573.97
2023-05-05T17:51:15.777Z,101588.59
2023-05-05T17:53:42.193Z,101591.72
2023-05-05T17:56:09.211Z,101590.31
2023-05-05T17:58:35.780Z,101592.22
2023-05-05T18:01:02.283Z,101600.66
2023-05-05T18:03:28.861Z,101608.41
2023-05-05T18:05:55.364Z,101604.75
2023-05-05T18:08:22.258Z,101597.63
2023-05-05T18:10:48.814Z,101600.25
2023-05-05T18:13:15.369Z,101608.19
2023-05-05T18:15:42.101Z,101608.19
2023-05-05T18:18:08.590Z,101609.78
2023-05-05T18:20:35.017Z,101607.16
2023-05-05T18:23:01.772Z,101608.97
2023-05-05T18:25:28.259Z,101595.25
2023-05-05T18:27:54.690Z,101595.03
2023-05-05T18:30:21.227Z,101596.44
2023-05-05T18:32:48.684Z,101592.47
2023-05-05T18:35:15.470Z,101601.00
2023-05-05T18:37:42.199Z,101609.41
2023-05-05T18:40:10.138Z,101619.38
2023-05-05T18:42:36.651Z,101612.13
2023-05-05T18:45:03.225Z,101613.56
2023-05-05T18:47:29.726Z,101608.47
2023-05-05T18:49:56.280Z,101608.78
2023-05-05T18:52:22.820Z,101612.44
2023-05-05T18:54:49.263Z,101619.06
2023-05-05T18:57:15.832Z,101613.03
2023-05-05T18:59:42.257Z,101620.56
2023-05-05T19:02:08.694Z,101616.19
2023-05-05T19:04:37.843Z,101612.63
2023-05-05T19:07:04.816Z,101618.25
2023-05-05T19:09:31.515Z,101615.25
2023-05-05T19:11:58.065Z,101616.38
2023-05-05T19:14:24.751Z,101623.59
2023-05-05T19:16:51.333Z,101625.94
2023-05-05T19:19:18.155Z,101629.25
2023-05-05T19:21:44.611Z,101632.56
2023-05-05T19:24:13.475Z,101630.91
2023-05-05T19:26:40.195Z,101638.09
2023-05-05T19:29:06.673Z,101640.63
2023-05-05T19:31:33.119Z,101638.47
2023-05-05T19:34:02.289Z,101637.91
2023-05-05T19:36:31.575Z,101643.41
2023-05-05T19:39:00.219Z,101647.25
2023-05-05T19:41:26.657Z,101646.47
2023-05-05T19:43:53.212Z,101653.84
2023-05-05T19:46:19.749Z,101645.16
2023-05-05T19:48:46.428Z,101641.44
2023-05-05T19:51:13.233Z,101640.44
2023-05-05T19:53:40.142Z,101645.28
2023-05-05T19:56:06.634Z,101648.53
2023-05-05T19:59:00.241Z,101649.03
2023-05-05T20:01:28.312Z,101653.25
2023-05-05T20:03:56.548Z,101659.13
2023-05-05T20:06:23.161Z,101657.84
2023-05-05T20:08:49.660Z,101655.34
2023-05-05T20:11:16.886Z,101655.41
2023-05-05T20:13:43.626Z,101660.63
2023-05-05T20:16:10.172Z,101660.47
2023-05-05T20:18:36.675Z,101662.16
2023-05-05T20:21:03.370Z,101657.16
2023-05-05T20:23:30.013Z,101655.94
2023-05-05T20:25:56.649Z,101665.53
2023-05-05T20:28:23.414Z,101649.94
2023-05-05T20:30:49.910Z,101658.06
2023-05-05T20:33:16.381Z,101655.63
2023-05-05T20:35:42.883Z,101666.47
2023-05-05T20:38:09.683Z,101672.53
2023-05-05T20:40:36.450Z,101674.00
2023-05-05T20:43:02.989Z,101669.63
2023-05-05T20:45:31.597Z,101670.88
2023-05-05T20:47:58.539Z,101669.81
2023-05-05T20:50:25.057Z,101667.13
2023-05-05T20:52:51.523Z,101664.41
2023-05-05T20:55:17.980Z,101656.09
2023-05-05T20:57:44.452Z,101658.16
2023-05-05T21:00:11.273Z,101654.22
2023-05-05T21:02:38.002Z,101657.75
2023-05-05T21:05:05.222Z,101650.03
2023-05-05T21:07:35.635Z,101657.31
2023-05-05T21:10:03.346Z,101654.84
2023-05-05T21:12:30.384Z,101653.56
2023-05-05T21:14:58.590Z,101660.69
2023-05-05T21:17:29.303Z,101654.44
2023-05-05T21:19:56.753Z,101654.22
2023-05-05T21:22:23.477Z,101649.84
2023-05-05T21:24:49.922Z,101655.25
2023-05-05T21:27:16.518Z,101651.50
2023-05-05T21:29:43.018Z,101651.06
2023-05-05T21:32:11.229Z,101653.78
2023-05-05T21:34:38.929Z,101654.44
2023-05-05T21:37:06.102Z,101641.91
2023-05-05T21:39:33.187Z,101649.84
2023-05-05T21:42:00.690Z,101659.84
2023-05-05T21:44:28.059Z,101651.50
2023-05-05T21:46:55.197Z,101655.09
2023-05-05T21:49:21.991Z,101648.63
2023-05-05T21:51:48.516Z,101654.69
2023-05-05T21:54:14.920Z,101646.97
2023-05-05T21:56:41.754Z,101645.53
2023-05-05T21:59:08.375Z,101644.09
2023-05-05T22:01:35.290Z,101646.19
2023-05-05T22:04:01.859Z,101648.66
2023-05-05T22:06:28.347Z,101640.34
2023-05-05T22:08:56.577Z,101636.41
2023-05-05T22:11:23.104Z,101636.19
2023-05-05T22:13:49.555Z,101642.44
2023-05-05T22:16:17.609Z,101638.28
2023-05-05T22:18:44.745Z,101644.13
2023-05-05T22:21:11.350Z,101643.31
2023-05-05T22:23:39.161Z,101640.38
2023-05-05T22:26:05.716Z,101642.84
2023-05-05T22:28:32.194Z,101649.09
2023-05-05T22:30:58.715Z,101647.44
2023-05-05T22:33:25.317Z,101640.75
2023-05-05T22:35:51.981Z,101645.78
2023-05-05T22:38:18.634Z,101645.34
2023-05-05T22:40:45.780Z,101644.75
2023-05-05T22:43:12.233Z,101644.31
2023-05-05T22:45:38.912Z,101649.50
2023-05-05T22:48:05.628Z,101651.81
2023-05-05T22:50:32.192Z,101648.50
2023-05-05T22:52:58.692Z,101637.47
2023-05-05T22:55:25.182Z,101639.94
2023-05-05T22:57:52.522Z,101639.09
2023-05-05T23:00:19.454Z,101640.75
2023-05-05T23:02:45.898Z,101634.53
2023-05-05T23:05:12.745Z,101631.63
2023-05-05T23:07:39.327Z,101627.03
2023-05-05T23:10:06.329Z,101624.53
2023-05-05T23:12:33.058Z,101634.91
2023-05-05T23:14:59.556Z,101639.69
2023-05-05T23:17:26.084Z,101633.25
2023-05-05T23:19:52.744Z,101633.69
2023-05-05T23:22:19.151Z,101634.94
2023-05-05T23:24:45.704Z,101642.44
2023-05-05T23:27:12.296Z,101635.16
2023-05-05T23:29:38.877Z,101642.84
2023-05-05T23:32:05.697Z,101629.50
2023-05-05T23:34:32.134Z,101628.28
2023-05-05T23:36:58.670Z,101630.78
2023-05-05T23:39:25.187Z,101627.84
2023-05-05T23:41:51.634Z,101633.47
2023-05-05T23:44:18.099Z,101621.63
2023-05-05T23:46:44.529Z,101623.72
2023-05-05T23:49:10.981Z,101626.41
2023-05-05T23:51:37.435Z,101619.34
2023-05-05T23:54:03.909Z,101627.84
2023-05-05T23:56:30.376Z,101623.47
2023-05-05T23:58:56.756Z,101614.13
